Time;durP1;ratioP1;P1;durP2;ratioP2;P2;SDS_P1;SDS_P2;PMS_P1;PMS_P2;Temp;Humidity;BMP_temperature;BMP_pressure;BME280_temperature;BME280_humidity;BME280_pressure;Samples;Min_cycle;Max_cycle;Signal;HPM_P1;HPM_P2
2022/03/28 00:00:29;;;;;;;9.07;8.15;;;18.30;99.90;;;;;;4209122;28;20218;-75
2022/03/28 00:02:32;;;;;;;9.88;8.30;;;18.20;99.90;;;;;;4208118;28;20207;-75
2022/03/28 00:04:34;;;;;;;11.95;9.38;;;18.20;99.90;;;;;;4208358;28;20677;-75
2022/03/28 00:06:36;;;;;;;12.18;9.00;;;18.30;99.90;;;;;;4209257;28;20968;-75
2022/03/28 00:08:39;;;;;;;11.88;9.25;;;18.20;99.90;;;;;;4209945;28;20252;-75
2022/03/28 00:10:41;;;;;;;9.38;8.27;;;18.20;99.90;;;;;;4212169;28;20226;-75
2022/03/28 00:12:45;;;;;;;11.23;9.00;;;18.20;99.90;;;;;;4208139;28;20211;-75
2022/03/28 00:14:47;;;;;;;10.18;8.68;;;18.20;99.90;;;;;;4211326;28;20271;-75
2022/03/28 00:16:50;;;;;;;11.15;8.70;;;18.20;99.90;;;;;;4210262;28;20298;-75
2022/03/28 00:18:52;;;;;;;11.48;8.63;;;18.20;99.90;;;;;;4209197;28;20226;-75
2022/03/28 00:20:55;;;;;;;11.13;8.93;;;18.20;99.90;;;;;;4211699;28;20613;-75
2022/03/28 00:22:57;;;;;;;11.43;8.20;;;18.20;99.90;;;;;;4210332;28;20264;-75
2022/03/28 00:25:00;;;;;;;12.93;9.35;;;18.20;99.90;;;;;;4209030;28;20226;-75
2022/03/28 00:27:02;;;;;;;9.82;8.30;;;18.20;99.90;;;;;;4210300;28;20284;-75
2022/03/28 00:29:06;;;;;;;11.77;9.35;;;18.20;99.90;;;;;;4211309;28;20226;-75
2022/03/28 00:31:08;;;;;;;10.68;8.73;;;18.20;99.90;;;;;;4210137;28;20709;-75
2022/03/28 00:33:11;;;;;;;9.52;8.25;;;18.20;99.90;;;;;;4208164;28;20271;-75
2022/03/28 00:35:13;;;;;;;10.65;8.57;;;18.20;99.90;;;;;;4208698;28;20211;-75
2022/03/28 00:37:15;;;;;;;10.98;8.73;;;18.20;99.90;;;;;;4210559;28;20234;-75
2022/03/28 00:39:19;;;;;;;10.65;8.73;;;18.20;99.90;;;;;;4210913;28;20227;-75
2022/03/28 00:41:21;;;;;;;11.00;8.40;;;18.20;99.90;;;;;;4209865;28;20354;-75
2022/03/28 00:43:24;;;;;;;10.20;8.13;;;18.20;99.90;;;;;;4211458;28;20279;-75
2022/03/28 00:45:27;;;;;;;9.90;8.45;;;18.10;99.90;;;;;;4206262;28;20218;-75
2022/03/28 00:47:30;;;;;;;13.00;8.82;;;18.10;99.90;;;;;;4205017;28;20219;-75
2022/03/28 00:49:33;;;;;;;9.90;8.48;;;18.20;99.90;;;;;;4209529;28;20572;-75
2022/03/28 00:51:36;;;;;;;11.27;8.98;;;18.20;99.90;;;;;;4210431;28;20210;-75
2022/03/28 00:53:40;;;;;;;12.70;8.98;;;18.20;99.90;;;;;;4208105;28;20307;-75
2022/03/28 00:55:42;;;;;;;9.98;8.70;;;18.20;99.90;;;;;;4210934;28;20287;-75
2022/03/28 00:57:45;;;;;;;10.73;8.55;;;18.10;99.90;;;;;;4210826;28;20242;-75
2022/03/28 00:59:47;;;;;;;10.50;8.38;;;18.20;99.90;;;;;;4211389;28;20218;-75
2022/03/28 01:01:51;;;;;;;10.55;8.35;;;18.20;99.90;;;;;;4210651;28;20219;-75
2022/03/28 01:03:53;;;;;;;10.43;7.75;;;18.10;99.90;;;;;;4210131;28;20219;-75
2022/03/28 01:05:56;;;;;;;9.50;8.13;;;18.10;99.90;;;;;;4208157;28;20219;-75
2022/03/28 01:08:00;;;;;;;10.40;8.85;;;18.20;99.90;;;;;;4210229;28;20214;-74
2022/03/28 01:10:03;;;;;;;10.23;8.48;;;18.10;99.90;;;;;;4208458;28;20269;-74
2022/03/28 01:12:07;;;;;;;10.35;7.97;;;18.10;99.90;;;;;;4211085;28;20268;-75
2022/03/28 01:14:09;;;;;;;12.27;8.20;;;18.10;99.90;;;;;;4209469;28;20272;-75
2022/03/28 01:16:11;;;;;;;9.55;8.05;;;18.10;99.90;;;;;;4214438;28;20728;-75
2022/03/28 01:18:15;;;;;;;10.10;8.65;;;18.10;99.90;;;;;;4212570;28;20275;-75
2022/03/28 01:20:18;;;;;;;11.57;8.20;;;18.10;99.90;;;;;;4212760;28;20272;-74
2022/03/28 01:22:21;;;;;;;10.95;8.77;;;18.10;99.90;;;;;;4211675;28;20218;-75
2022/03/28 01:24:24;;;;;;;10.68;8.43;;;18.10;99.90;;;;;;4213403;28;20678;-75
2022/03/28 01:26:26;;;;;;;11.38;8.30;;;18.10;99.90;;;;;;4213024;28;20213;-75
2022/03/28 01:28:28;;;;;;;9.63;7.85;;;18.10;99.90;;;;;;4212086;28;20610;-75
2022/03/28 01:30:33;;;;;;;10.38;8.30;;;18.10;99.90;;;;;;4213494;28;20218;-75
2022/03/28 01:32:35;;;;;;;11.68;8.32;;;18.10;99.90;;;;;;4212016;28;20256;-75
2022/03/28 01:34:38;;;;;;;10.13;8.18;;;18.10;99.90;;;;;;4214001;28;20268;-75
2022/03/28 01:36:40;;;;;;;12.23;8.80;;;18.10;99.90;;;;;;4212895;28;20759;-75
2022/03/28 01:38:44;;;;;;;11.35;8.27;;;18.10;99.90;;;;;;4213577;28;20218;-75
2022/03/28 01:40:48;;;;;;;9.88;8.15;;;18.00;99.90;;;;;;4212717;28;20271;-75
2022/03/28 01:42:51;;;;;;;9.90;8.10;;;18.00;99.90;;;;;;4212096;28;20275;-74
2022/03/28 01:44:53;;;;;;;10.70;8.07;;;18.10;99.90;;;;;;4208419;28;20214;-75
2022/03/28 01:46:55;;;;;;;9.70;8.20;;;18.10;99.90;;;;;;4213594;28;20218;-75
2022/03/28 01:48:58;;;;;;;10.68;8.57;;;18.10;99.90;;;;;;4214027;28;20275;-75
2022/03/28 01:51:00;;;;;;;11.40;8.50;;;18.10;99.90;;;;;;4208836;28;20214;-75
2022/03/28 01:53:03;;;;;;;11.43;8.48;;;18.00;99.90;;;;;;4209092;28;20215;-75
2022/03/28 01:55:09;;;;;;;9.02;7.70;;;18.00;99.90;;;;;;4210227;28;20671;-75
2022/03/28 01:57:11;;;;;;;8.85;7.85;;;18.00;99.90;;;;;;4211135;28;20234;-75
2022/03/28 01:59:14;;;;;;;10.18;8.15;;;18.00;99.90;;;;;;4212929;28;20237;-74
2022/03/28 02:01:16;;;;;;;10.65;8.10;;;18.00;99.90;;;;;;4210610;28;20244;-75
2022/03/28 02:03:18;;;;;;;9.50;8.05;;;18.10;99.90;;;;;;4213028;28;20263;-75
2022/03/28 02:05:21;;;;;;;11.85;8.60;;;18.00;99.90;;;;;;4212438;28;20671;-75
2022/03/28 02:07:24;;;;;;;11.75;8.10;;;18.00;99.90;;;;;;4212284;28;20267;-75
2022/03/28 02:09:26;;;;;;;9.95;7.80;;;18.00;99.90;;;;;;4210863;28;20215;-75
2022/03/28 02:11:30;;;;;;;9.63;8.00;;;18.00;99.90;;;;;;4211982;28;20219;-75
2022/03/28 02:13:33;;;;;;;11.23;7.82;;;18.00;99.90;;;;;;4213020;28;20219;-75
2022/03/28 02:15:35;;;;;;;11.55;8.68;;;18.00;99.90;;;;;;4211991;28;20206;-75
2022/03/28 02:17:38;;;;;;;10.40;8.63;;;18.00;99.90;;;;;;4209823;28;20292;-75
2022/03/28 02:19:41;;;;;;;10.07;7.53;;;18.00;99.90;;;;;;4212104;28;20218;-75
2022/03/28 02:21:43;;;;;;;9.40;8.02;;;18.00;99.90;;;;;;4211259;28;20951;-75
2022/03/28 02:23:46;;;;;;;10.50;8.23;;;18.00;99.90;;;;;;4212397;28;20276;-75
2022/03/28 02:25:48;;;;;;;9.88;7.63;;;18.00;99.90;;;;;;4211995;28;20268;-75
2022/03/28 02:27:53;;;;;;;8.90;7.95;;;18.00;99.90;;;;;;4212263;28;20210;-75
2022/03/28 02:29:55;;;;;;;8.52;7.60;;;18.00;99.90;;;;;;4212772;28;20237;-75
2022/03/28 02:31:57;;;;;;;9.73;8.55;;;18.00;99.90;;;;;;4210707;28;20286;-75
2022/03/28 02:34:00;;;;;;;11.15;8.23;;;18.00;99.90;;;;;;4211925;28;20280;-75
2022/03/28 02:36:02;;;;;;;9.07;7.57;;;18.00;99.90;;;;;;4206880;28;20252;-75
2022/03/28 02:38:04;;;;;;;10.55;7.88;;;18.00;99.90;;;;;;4211142;28;20230;-75
2022/03/28 02:40:09;;;;;;;10.85;8.13;;;18.00;99.90;;;;;;4212402;28;20692;-75
2022/03/28 02:42:11;;;;;;;9.25;7.78;;;18.00;99.90;;;;;;4210655;28;20279;-75
2022/03/28 02:44:15;;;;;;;9.82;7.75;;;18.00;99.90;;;;;;4212074;28;20279;-75
2022/03/28 02:46:17;;;;;;;10.32;7.97;;;18.00;99.90;;;;;;4212595;28;20215;-75
2022/03/28 02:48:19;;;;;;;10.00;8.05;;;18.00;99.90;;;;;;4211463;28;20218;-75
2022/03/28 02:50:22;;;;;;;9.18;7.70;;;17.90;99.90;;;;;;4210738;28;20219;-75
2022/03/28 02:52:24;;;;;;;11.05;7.57;;;18.00;99.90;;;;;;4211488;28;20263;-75
2022/03/28 02:54:26;;;;;;;12.35;8.40;;;18.00;99.90;;;;;;4207504;28;20663;-75
2022/03/28 02:56:29;;;;;;;10.23;8.02;;;18.00;99.90;;;;;;4210985;28;20299;-75
2022/03/28 02:58:31;;;;;;;9.75;8.15;;;18.00;99.90;;;;;;4209728;28;20230;-75
2022/03/28 03:00:35;;;;;;;9.50;8.23;;;18.00;99.90;;;;;;4210891;28;20215;-75
2022/03/28 03:02:39;;;;;;;10.10;8.05;;;17.90;99.90;;;;;;4208574;28;20256;-75
2022/03/28 03:04:41;;;;;;;9.70;7.53;;;17.90;99.90;;;;;;4211337;28;20273;-75
2022/03/28 03:06:44;;;;;;;9.68;7.95;;;17.90;99.90;;;;;;4210525;28;20219;-75
2022/03/28 03:08:46;;;;;;;10.18;8.10;;;17.90;99.90;;;;;;4209563;28;20214;-75
2022/03/28 03:10:48;;;;;;;8.70;7.72;;;17.90;99.90;;;;;;4210637;28;20218;-75
2022/03/28 03:12:51;;;;;;;10.85;8.18;;;17.90;99.90;;;;;;4211164;28;20526;-75
2022/03/28 03:14:53;;;;;;;9.15;7.85;;;17.90;99.90;;;;;;4210013;28;20215;-75
2022/03/28 03:16:57;;;;;;;10.32;8.13;;;17.90;99.90;;;;;;4210192;28;20210;-75
2022/03/28 03:18:59;;;;;;;10.75;8.43;;;17.90;99.90;;;;;;4210803;28;20283;-75
2022/03/28 03:21:02;;;;;;;10.48;7.75;;;17.90;99.90;;;;;;4212040;28;20222;-75
2022/03/28 03:23:05;;;;;;;10.27;8.45;;;17.90;99.90;;;;;;4210239;28;20252;-75
2022/03/28 03:25:08;;;;;;;10.57;8.20;;;17.90;99.90;;;;;;4210638;28;20712;-75
2022/03/28 03:27:11;;;;;;;8.82;7.60;;;17.90;99.90;;;;;;4210139;28;20276;-73
2022/03/28 03:29:13;;;;;;;8.88;7.93;;;17.90;99.90;;;;;;4210519;28;20255;-73
2022/03/28 03:31:15;;;;;;;10.10;7.93;;;17.90;99.90;;;;;;4210924;28;20739;-72
2022/03/28 03:33:19;;;;;;;10.25;8.50;;;17.90;99.90;;;;;;4209965;28;20257;-72
2022/03/28 03:35:22;;;;;;;9.48;7.82;;;17.90;99.90;;;;;;4210368;28;20393;-72
2022/03/28 03:37:24;;;;;;;9.65;8.23;;;17.90;99.90;;;;;;4210561;28;20260;-72
2022/03/28 03:39:27;;;;;;;10.18;7.93;;;17.90;99.90;;;;;;4210461;28;20662;-72
2022/03/28 03:41:29;;;;;;;10.30;8.75;;;17.90;99.90;;;;;;4208694;28;20214;-73
2022/03/28 03:43:32;;;;;;;9.63;8.10;;;17.80;99.90;;;;;;4209043;28;20214;-73
2022/03/28 03:45:34;;;;;;;10.05;8.20;;;17.90;99.90;;;;;;4209439;28;20214;-73
2022/03/28 03:47:37;;;;;;;11.18;8.27;;;17.90;99.90;;;;;;4210000;28;20268;-73
2022/03/28 03:49:41;;;;;;;10.32;8.48;;;17.90;99.90;;;;;;4209671;28;21092;-73
2022/03/28 03:51:44;;;;;;;10.82;8.77;;;17.90;99.90;;;;;;4212996;28;20210;-73
2022/03/28 03:53:46;;;;;;;9.68;8.07;;;17.90;99.90;;;;;;4207691;28;20219;-73
2022/03/28 03:55:49;;;;;;;10.27;8.25;;;17.90;99.90;;;;;;4209905;28;20268;-72
2022/03/28 03:57:51;;;;;;;10.85;8.07;;;17.80;99.90;;;;;;4210655;28;20218;-72
2022/03/28 03:59:53;;;;;;;10.00;7.75;;;17.80;99.90;;;;;;4207482;28;20252;-72
2022/03/28 04:01:56;;;;;;;9.50;7.50;;;17.80;99.90;;;;;;4210820;28;20218;-73
2022/03/28 04:03:58;;;;;;;11.45;8.07;;;17.80;99.90;;;;;;4210261;28;20214;-72
2022/03/28 04:06:02;;;;;;;9.68;8.20;;;17.80;99.90;;;;;;4211258;28;21005;-73
2022/03/28 04:08:05;;;;;;;10.02;7.78;;;17.80;99.90;;;;;;4211782;28;20712;-72
2022/03/28 04:10:08;;;;;;;10.77;7.65;;;17.80;99.90;;;;;;4211632;28;20260;-73
2022/03/28 04:12:12;;;;;;;9.20;7.75;;;17.80;99.90;;;;;;4211347;28;20218;-72
2022/03/28 04:14:15;;;;;;;9.50;7.90;;;17.90;99.90;;;;;;4211105;28;20282;-72
2022/03/28 04:16:17;;;;;;;9.98;7.25;;;17.80;99.90;;;;;;4210229;28;20639;-73
2022/03/28 04:18:20;;;;;;;8.88;7.20;;;17.80;99.90;;;;;;4209484;28;20702;-72
2022/03/28 04:20:22;;;;;;;9.68;7.63;;;17.80;99.90;;;;;;4208230;28;20222;-72
2022/03/28 04:22:26;;;;;;;8.98;7.25;;;17.80;99.90;;;;;;4203387;28;20207;-73
2022/03/28 04:24:29;;;;;;;8.85;7.95;;;17.80;99.90;;;;;;4207265;28;20226;-73
2022/03/28 04:26:31;;;;;;;10.70;8.13;;;17.80;99.90;;;;;;4206259;28;20246;-72
2022/03/28 04:28:34;;;;;;;8.82;7.72;;;17.80;99.90;;;;;;4208547;28;20249;-72
2022/03/28 04:30:36;;;;;;;9.82;7.90;;;17.80;99.90;;;;;;4210876;28;20601;-72
2022/03/28 04:32:38;;;;;;;9.05;7.63;;;17.80;99.90;;;;;;4209737;28;20234;-72
2022/03/28 04:34:41;;;;;;;10.30;8.02;;;17.80;99.90;;;;;;4206711;28;20214;-72
2022/03/28 04:36:43;;;;;;;10.73;7.88;;;17.80;99.90;;;;;;4209049;28;20218;-72
2022/03/28 04:38:47;;;;;;;8.93;7.43;;;17.80;99.90;;;;;;4209110;28;20238;-72
2022/03/28 04:40:49;;;;;;;9.02;7.43;;;17.80;99.90;;;;;;4209973;28;20615;-72
2022/03/28 04:42:52;;;;;;;9.80;7.95;;;17.80;99.90;;;;;;4210895;28;20222;-72
2022/03/28 04:44:54;;;;;;;9.45;7.60;;;17.80;99.90;;;;;;4208881;28;20222;-72
2022/03/28 04:46:56;;;;;;;8.48;7.30;;;17.80;99.90;;;;;;4210369;28;20225;-72
2022/03/28 04:48:59;;;;;;;10.95;7.90;;;17.70;99.90;;;;;;4206737;28;20214;-73
2022/03/28 04:51:02;;;;;;;9.98;7.60;;;17.80;99.90;;;;;;4206637;28;20272;-73
2022/03/28 04:53:04;;;;;;;10.20;7.97;;;17.80;99.90;;;;;;4208730;28;20615;-72
2022/03/28 04:55:09;;;;;;;8.30;7.35;;;17.80;99.90;;;;;;4209215;28;20218;-73
2022/03/28 04:57:11;;;;;;;9.52;7.78;;;17.70;99.90;;;;;;4207651;28;20222;-72
2022/03/28 04:59:14;;;;;;;9.43;7.40;;;17.80;99.90;;;;;;4211225;28;20281;-72
2022/03/28 05:01:16;;;;;;;9.25;7.57;;;17.80;99.90;;;;;;4210654;28;20207;-72
2022/03/28 05:03:18;;;;;;;8.32;7.32;;;17.70;99.90;;;;;;4211049;28;20223;-73
2022/03/28 05:05:21;;;;;;;9.48;6.85;;;17.70;99.90;;;;;;4208368;28;20218;-73
2022/03/28 05:07:24;;;;;;;9.55;7.72;;;17.70;99.90;;;;;;4210270;28;20214;-73
2022/03/28 05:09:26;;;;;;;10.02;7.32;;;17.70;99.90;;;;;;4209782;28;20210;-73
2022/03/28 05:11:30;;;;;;;8.30;7.18;;;17.80;99.90;;;;;;4209909;28;20263;-72
2022/03/28 05:13:32;;;;;;;8.90;7.38;;;17.70;99.90;;;;;;4210338;28;20223;-72
2022/03/28 05:15:35;;;;;;;8.63;7.22;;;17.70;99.90;;;;;;4211043;28;20267;-72
2022/03/28 05:17:37;;;;;;;10.52;8.05;;;17.70;99.90;;;;;;4210685;28;20371;-72
2022/03/28 05:19:39;;;;;;;10.90;7.97;;;17.70;99.90;;;;;;4209154;28;20238;-72
2022/03/28 05:21:42;;;;;;;11.05;7.53;;;17.70;99.90;;;;;;4210906;28;20670;-72
2022/03/28 05:23:46;;;;;;;9.43;7.53;;;17.70;99.90;;;;;;4211004;28;20222;-72
2022/03/28 05:25:48;;;;;;;9.52;7.55;;;17.70;99.90;;;;;;4209565;28;20214;-72
2022/03/28 05:27:52;;;;;;;10.63;7.38;;;17.70;99.90;;;;;;4210015;28;20215;-72
2022/03/28 05:29:54;;;;;;;8.20;7.03;;;17.70;99.90;;;;;;4210027;28;20546;-72
2022/03/28 05:31:56;;;;;;;8.48;7.20;;;17.80;99.90;;;;;;4208997;28;20282;-72
2022/03/28 05:33:59;;;;;;;9.45;7.03;;;17.70;99.90;;;;;;4210189;28;20218;-72
2022/03/28 05:36:01;;;;;;;10.07;7.60;;;17.80;99.90;;;;;;4210668;28;20222;-72
2022/03/28 05:38:04;;;;;;;8.05;7.07;;;17.70;99.90;;;;;;4210636;28;20283;-72
2022/03/28 05:40:07;;;;;;;11.55;8.32;;;17.70;99.90;;;;;;4211185;28;20615;-72
2022/03/28 05:42:09;;;;;;;8.80;7.15;;;17.80;99.90;;;;;;4209643;28;20658;-72
2022/03/28 05:44:13;;;;;;;10.90;8.27;;;17.70;99.90;;;;;;4206947;28;20620;-72
2022/03/28 05:46:18;;;;;;;9.45;7.00;;;17.80;99.90;;;;;;4207916;28;20599;-72
2022/03/28 05:48:21;;;;;;;8.55;7.25;;;17.70;99.90;;;;;;4208506;28;20256;-72
2022/03/28 05:50:23;;;;;;;10.23;7.32;;;17.70;99.90;;;;;;4209725;28;20668;-72
2022/03/28 05:52:26;;;;;;;9.50;7.32;;;17.70;99.80;;;;;;4207901;28;20710;-72
2022/03/28 05:54:28;;;;;;;9.95;7.57;;;17.70;99.90;;;;;;4209803;28;20222;-72
2022/03/28 05:56:30;;;;;;;10.35;7.15;;;17.70;99.80;;;;;;4210795;28;20273;-73
2022/03/28 05:58:33;;;;;;;11.05;7.78;;;17.80;99.90;;;;;;4208194;28;20667;-72
2022/03/28 06:00:37;;;;;;;10.63;7.53;;;17.70;99.90;;;;;;4209823;28;20287;-72
2022/03/28 06:02:39;;;;;;;10.82;7.63;;;17.70;99.80;;;;;;4213104;28;20235;-72
2022/03/28 06:04:42;;;;;;;9.80;7.32;;;17.70;99.80;;;;;;4212210;28;20275;-72
2022/03/28 06:06:44;;;;;;;13.05;7.72;;;17.70;99.70;;;;;;4213785;28;20334;-72
2022/03/28 06:08:46;;;;;;;10.85;7.47;;;17.80;99.80;;;;;;4211942;28;20226;-73
2022/03/28 06:10:49;;;;;;;11.80;6.95;;;17.70;99.70;;;;;;4209600;28;20218;-72
2022/03/28 06:12:51;;;;;;;9.00;7.45;;;17.70;99.70;;;;;;4211391;28;20218;-72
2022/03/28 06:14:54;;;;;;;9.07;7.25;;;17.70;99.70;;;;;;4213562;28;20276;-72
2022/03/28 06:16:57;;;;;;;8.70;7.00;;;17.80;99.70;;;;;;4211137;28;20670;-73
2022/03/28 06:18:59;;;;;;;10.73;7.30;;;17.70;99.60;;;;;;4213872;28;20218;-72
2022/03/28 06:21:02;;;;;;;7.95;7.00;;;17.70;99.60;;;;;;4211033;28;20207;-72
2022/03/28 06:23:04;;;;;;;9.02;7.35;;;17.70;99.60;;;;;;4212232;28;20638;-72
2022/03/28 06:25:08;;;;;;;10.48;6.95;;;17.70;99.60;;;;;;4212218;28;20219;-71
2022/03/28 06:27:11;;;;;;;10.07;6.72;;;17.70;99.60;;;;;;4211437;28;20226;-72
2022/03/28 06:29:13;;;;;;;8.55;7.25;;;17.70;99.60;;;;;;4212685;28;20206;-72
2022/03/28 06:31:16;;;;;;;11.40;7.65;;;17.80;99.60;;;;;;4213364;28;20288;-72
2022/03/28 06:33:20;;;;;;;10.23;7.40;;;17.70;99.60;;;;;;4209437;28;20210;-72
2022/03/28 06:35:22;;;;;;;10.15;7.55;;;17.80;99.60;;;;;;4212423;28;20256;-72
2022/03/28 06:37:25;;;;;;;8.75;7.25;;;17.80;99.60;;;;;;4209390;28;20219;-72
2022/03/28 06:39:27;;;;;;;10.02;7.47;;;17.70;99.60;;;;;;4210267;28;20621;-72
2022/03/28 06:41:29;;;;;;;9.50;7.28;;;17.80;99.60;;;;;;4212483;28;20210;-71
2022/03/28 06:43:32;;;;;;;9.45;7.30;;;17.80;99.70;;;;;;4212904;28;20210;-73
2022/03/28 06:45:36;;;;;;;9.07;6.50;;;17.80;99.40;;;;;;4211531;28;20641;-73
2022/03/28 06:47:38;;;;;;;13.93;8.80;;;17.70;99.70;;;;;;4212815;28;20644;-73
2022/03/28 06:49:42;;;;;;;14.55;9.35;;;17.60;99.30;;;;;;4212834;28;20210;-73
2022/03/28 06:51:44;;;;;;;102.70;16.63;;;17.60;98.80;;;;;;4205298;28;20290;-72
2022/03/28 06:53:48;;;;;;;28.88;11.27;;;17.60;99.70;;;;;;4207080;28;20264;-72
2022/03/28 06:55:50;;;;;;;19.05;8.60;;;17.50;99.80;;;;;;4209470;28;20219;-74
2022/03/28 06:57:53;;;;;;;23.25;9.70;;;17.50;99.80;;;;;;4208162;28;20219;-73
2022/03/28 06:59:55;;;;;;;20.40;9.25;;;17.50;99.90;;;;;;4206525;28;20238;-73
2022/03/28 07:01:57;;;;;;;17.10;8.63;;;17.40;99.90;;;;;;4209122;28;20214;-73
2022/03/28 07:04:00;;;;;;;23.83;10.05;;;17.50;99.90;;;;;;4208053;28;20211;-72
2022/03/28 07:06:04;;;;;;;22.10;11.02;;;17.60;99.90;;;;;;4203428;28;20753;-72
2022/03/28 07:08:06;;;;;;;26.92;10.20;;;17.60;99.90;;;;;;4199633;28;20649;-71
2022/03/28 07:10:10;;;;;;;18.83;10.55;;;17.60;99.90;;;;;;4203733;28;20207;-72
2022/03/28 07:12:12;;;;;;;22.75;10.35;;;17.60;99.90;;;;;;4202286;28;20263;-74
2022/03/28 07:14:16;;;;;;;20.92;9.52;;;17.70;99.90;;;;;;4210138;28;20292;-72
2022/03/28 07:16:19;;;;;;;18.60;9.98;;;17.70;99.90;;;;;;4209197;28;20258;-73
2022/03/28 07:18:22;;;;;;;19.23;9.68;;;17.80;99.90;;;;;;4207032;28;20210;-73
2022/03/28 07:20:27;;;;;;;27.20;9.88;;;17.90;99.90;;;;;;4207118;28;20292;-73
2022/03/28 07:22:31;;;;;;;21.55;9.25;;;17.90;99.90;;;;;;4198993;28;20218;-73
2022/03/28 07:24:33;;;;;;;19.63;9.85;;;18.00;99.90;;;;;;4203616;28;20210;-73
2022/03/28 07:26:35;;;;;;;30.33;10.65;;;18.00;99.90;;;;;;4204391;28;20626;-74
2022/03/28 07:28:39;;;;;;;15.00;9.35;;;18.10;99.90;;;;;;4199502;28;20217;-74
2022/03/28 07:30:42;;;;;;;18.27;9.48;;;18.10;99.90;;;;;;4201882;28;20989;-74
2022/03/28 07:32:45;;;;;;;21.83;10.90;;;18.00;99.90;;;;;;4201491;28;20288;-77
2022/03/28 07:34:51;;;;;;;20.70;9.25;;;18.00;99.90;;;;;;4198513;28;20214;-77
2022/03/28 07:36:54;;;;;;;27.58;10.23;;;18.00;99.90;;;;;;4202285;28;20219;-74
2022/03/28 07:38:57;;;;;;;16.80;8.80;;;18.00;99.90;;;;;;4206698;28;20642;-73
2022/03/28 07:41:00;;;;;;;20.05;10.98;;;18.10;99.90;;;;;;4203271;28;20235;-75
2022/03/28 07:43:02;;;;;;;26.23;9.30;;;18.10;99.90;;;;;;4195845;28;20254;-74
2022/03/28 07:45:08;;;;;;;23.33;9.68;;;18.10;99.90;;;;;;4205401;28;20218;-73
2022/03/28 07:47:11;;;;;;;17.85;8.98;;;18.10;99.90;;;;;;4208829;28;20257;-72
2022/03/28 07:49:13;;;;;;;40.95;10.55;;;18.10;99.90;;;;;;4201837;28;20214;-72
2022/03/28 07:51:16;;;;;;;23.63;9.13;;;18.20;99.90;;;;;;4202971;28;21274;-74
2022/03/28 07:53:18;;;;;;;28.98;10.05;;;18.20;99.90;;;;;;4206340;28;20216;-74
2022/03/28 07:55:22;;;;;;;18.33;9.05;;;18.20;99.90;;;;;;4203905;28;20245;-74
2022/03/28 07:57:24;;;;;;;27.30;9.48;;;18.20;99.90;;;;;;4200298;28;20211;-74
2022/03/28 07:59:29;;;;;;;17.48;9.38;;;18.20;99.90;;;;;;4202936;28;20215;-75
2022/03/28 08:01:31;;;;;;;21.13;10.05;;;18.30;99.90;;;;;;4207070;28;20280;-75
2022/03/28 08:03:34;;;;;;;17.38;9.48;;;18.30;99.90;;;;;;4208860;28;20211;-76
2022/03/28 08:05:36;;;;;;;19.20;8.52;;;18.40;99.90;;;;;;4209367;28;20321;-75
2022/03/28 08:07:38;;;;;;;14.88;8.80;;;18.30;99.90;;;;;;4203859;28;20650;-74
2022/03/28 08:09:41;;;;;;;23.23;8.43;;;18.30;99.90;;;;;;4204947;28;20210;-75
2022/03/28 08:11:45;;;;;;;22.02;9.20;;;18.30;99.90;;;;;;4204137;28;20259;-75
2022/03/28 08:13:47;;;;;;;18.08;7.20;;;18.30;99.90;;;;;;4203743;28;20265;-76
2022/03/28 08:15:49;;;;;;;17.70;8.10;;;18.30;99.90;;;;;;4202346;28;20650;-76
2022/03/28 08:17:52;;;;;;;16.92;7.97;;;18.30;99.90;;;;;;4206200;28;20283;-78
2022/03/28 08:19:55;;;;;;;16.65;8.30;;;18.40;99.90;;;;;;4209023;28;20218;-76
2022/03/28 08:21:57;;;;;;;15.57;8.18;;;18.40;99.90;;;;;;4205233;28;20303;-74
2022/03/28 08:24:00;;;;;;;19.70;9.05;;;18.40;99.90;;;;;;4205121;28;20211;-74
2022/03/28 08:26:02;;;;;;;15.23;8.63;;;18.40;99.90;;;;;;4205477;28;20226;-74
2022/03/28 08:28:06;;;;;;;18.60;8.07;;;18.50;99.90;;;;;;4207499;28;20259;-74
2022/03/28 08:30:09;;;;;;;19.67;8.43;;;18.50;99.90;;;;;;4205961;28;20279;-74
2022/03/28 08:32:12;;;;;;;12.65;8.30;;;18.50;99.90;;;;;;4196507;28;20308;-74
2022/03/28 08:34:16;;;;;;;13.98;8.25;;;18.50;99.90;;;;;;4204348;28;20708;-75
2022/03/28 08:36:20;;;;;;;17.13;8.10;;;18.50;99.90;;;;;;4204622;28;20211;-75
2022/03/28 08:38:23;;;;;;;15.98;7.55;;;18.50;99.90;;;;;;4203540;28;20214;-74
2022/03/28 08:40:26;;;;;;;17.75;8.55;;;18.60;99.90;;;;;;4205022;28;20222;-75
2022/03/28 08:42:29;;;;;;;16.08;7.30;;;18.50;99.90;;;;;;4200059;28;20284;-73
2022/03/28 08:44:32;;;;;;;17.30;8.07;;;18.60;99.90;;;;;;4201156;28;20355;-72
2022/03/28 08:46:42;;;;;;;17.80;8.35;;;18.60;99.90;;;;;;4207149;28;20288;-73
2022/03/28 08:48:44;;;;;;;13.05;7.32;;;18.60;99.90;;;;;;4200299;28;20221;-74
2022/03/28 08:50:49;;;;;;;13.45;7.50;;;18.60;99.90;;;;;;4203632;28;20222;-76
2022/03/28 08:52:53;;;;;;;13.88;8.32;;;18.60;99.90;;;;;;4205649;28;20210;-74
2022/03/28 08:54:55;;;;;;;12.10;7.90;;;18.70;99.90;;;;;;4207143;28;20222;-76
2022/03/28 08:56:58;;;;;;;13.45;8.07;;;18.70;99.90;;;;;;4203488;28;20268;-75
2022/03/28 08:59:00;;;;;;;14.70;8.45;;;18.70;99.90;;;;;;4204570;28;20211;-74
2022/03/28 09:01:05;;;;;;;16.55;7.80;;;18.80;99.90;;;;;;4204287;28;20272;-73
2022/03/28 09:03:08;;;;;;;12.75;7.35;;;18.70;99.90;;;;;;4206016;28;20271;-74
2022/03/28 09:05:11;;;;;;;14.40;7.22;;;18.80;99.90;;;;;;4204791;28;20264;-75
2022/03/28 09:07:26;;;;;;;12.60;7.78;;;18.80;99.90;;;;;;4202331;28;20210;-74
2022/03/28 09:09:31;;;;;;;14.43;8.05;;;18.80;99.90;;;;;;4201216;28;20222;-73
2022/03/28 09:11:34;;;;;;;11.30;7.28;;;18.80;99.90;;;;;;4205617;28;20961;-75
2022/03/28 09:13:44;;;;;;;10.68;6.78;;;18.90;99.90;;;;;;4201214;28;22108;-75
2022/03/28 09:15:49;;;;;;;15.73;6.75;;;18.90;99.90;;;;;;4204882;28;20274;-72
2022/03/28 09:17:57;;;;;;;12.98;6.72;;;18.80;99.90;;;;;;4198409;28;20207;-72
2022/03/28 09:20:03;;;;;;;12.93;6.85;;;18.80;99.90;;;;;;4205257;28;20342;-74
2022/03/28 09:22:11;;;;;;;15.18;7.22;;;18.80;99.90;;;;;;4204151;28;20754;-73
2022/03/28 09:24:13;;;;;;;16.33;7.70;;;18.90;99.90;;;;;;4192832;28;21057;-73
2022/03/28 09:26:18;;;;;;;16.00;7.30;;;18.80;99.90;;;;;;4207041;28;20624;-73
2022/03/28 09:28:25;;;;;;;15.05;7.35;;;18.90;99.90;;;;;;4207036;28;20253;-74
2022/03/28 09:30:33;;;;;;;11.95;6.90;;;18.90;99.90;;;;;;4201885;28;20214;-74
2022/03/28 09:32:37;;;;;;;13.55;7.43;;;18.90;99.90;;;;;;4200497;28;20225;-76
2022/03/28 09:34:41;;;;;;;13.00;8.18;;;18.90;99.90;;;;;;4205055;28;20215;-75
2022/03/28 09:36:49;;;;;;;13.82;7.43;;;18.90;99.90;;;;;;4206844;28;20319;-73
2022/03/28 09:38:57;;;;;;;11.88;6.55;;;18.90;99.90;;;;;;4208531;28;20273;-73
2022/03/28 09:41:00;;;;;;;11.60;6.68;;;18.90;99.90;;;;;;4207942;28;20218;-74
2022/03/28 09:43:05;;;;;;;11.30;6.63;;;18.90;99.90;;;;;;4209435;28;20215;-74
2022/03/28 09:45:19;;;;;;;13.80;7.07;;;18.90;99.90;;;;;;4210508;28;20767;-74
2022/03/28 09:47:27;;;;;;;14.55;6.80;;;18.90;99.90;;;;;;4206146;28;20268;-73
2022/03/28 09:49:32;;;;;;;14.00;6.88;;;19.00;99.90;;;;;;4211215;28;20871;-73
2022/03/28 09:51:36;;;;;;;11.23;6.78;;;19.00;99.90;;;;;;4208636;28;20285;-73
2022/03/28 09:53:40;;;;;;;13.20;7.38;;;19.00;99.90;;;;;;4204610;28;20272;-75
2022/03/28 09:55:55;;;;;;;10.55;6.65;;;19.00;99.90;;;;;;4208679;28;20268;-75
2022/03/28 09:57:58;;;;;;;10.18;6.38;;;19.00;99.90;;;;;;4209795;28;20230;-75
2022/03/28 10:00:09;;;;;;;14.25;7.10;;;19.10;99.90;;;;;;4205120;28;20272;-74
2022/03/28 10:02:16;;;;;;;13.18;7.13;;;19.00;99.90;;;;;;4210838;28;20233;-75
2022/03/28 10:04:19;;;;;;;10.70;6.40;;;19.00;99.90;;;;;;4207803;28;20218;-73
2022/03/28 10:06:23;;;;;;;13.20;7.05;;;19.00;99.90;;;;;;4207816;28;20218;-74
2022/03/28 10:08:27;;;;;;;12.50;6.88;;;19.00;99.90;;;;;;4208668;28;20555;-74
2022/03/28 10:10:30;;;;;;;12.35;6.95;;;19.00;99.90;;;;;;4207819;28;20271;-74
2022/03/28 10:12:33;;;;;;;13.52;6.55;;;19.10;99.90;;;;;;4208220;28;20202;-74
2022/03/28 10:14:36;;;;;;;12.48;6.80;;;19.10;99.90;;;;;;4209398;28;20264;-73
2022/03/28 10:16:39;;;;;;;10.48;6.05;;;19.10;99.90;;;;;;4205961;28;20674;-73
2022/03/28 10:18:44;;;;;;;9.75;7.20;;;19.20;99.90;;;;;;4203783;28;20215;-74
2022/03/28 10:20:53;;;;;;;12.93;7.28;;;19.10;99.90;;;;;;4206888;28;20319;-75
2022/03/28 10:22:57;;;;;;;11.88;6.75;;;19.10;99.90;;;;;;4204843;28;20242;-75
2022/03/28 10:25:05;;;;;;;16.80;7.82;;;19.10;99.90;;;;;;4206203;28;20356;-74
2022/03/28 10:27:11;;;;;;;13.18;7.32;;;19.10;99.90;;;;;;4210037;28;20222;-74
2022/03/28 10:29:15;;;;;;;14.20;7.07;;;19.10;99.90;;;;;;4205486;28;20755;-74
2022/03/28 10:31:19;;;;;;;13.82;6.80;;;19.20;99.90;;;;;;4207124;28;20242;-73
2022/03/28 10:33:23;;;;;;;17.33;8.30;;;19.20;99.90;;;;;;4205963;28;20274;-76